Time;durP1;ratioP1;P1;durP2;ratioP2;P2;SDS_P1;SDS_P2;PMS_P1;PMS_P2;Temp;Humidity;BMP_temperature;BMP_pressure;BME280_temperature;BME280_humidity;BME280_pressure;Samples;Min_cycle;Max_cycle;Signal;HPM_P1;HPM_P2
2022/01/15 00:00:43;;;;;;;23.60;10.93;;;;;;;;;;4897437;29;20512;-81
2022/01/15 00:03:10;;;;;;;20.80;10.47;;;;;;;;;;4883130;29;20425;-82
2022/01/15 00:05:37;;;;;;;20.05;10.13;;;;;;;;;;4882219;29;20448;-81
2022/01/15 00:08:04;;;;;;;22.75;10.93;;;;;;;;;;4899038;29;20436;-81
2022/01/15 00:10:30;;;;;;;21.02;10.57;;;;;;;;;;4894976;29;20433;-81
2022/01/15 00:12:56;;;;;;;19.73;10.80;;;;;;;;;;4875694;29;20428;-81
2022/01/15 00:15:30;;;;;;;22.27;10.77;;;;;;;;;;4892111;29;20460;-81
2022/01/15 00:18:04;;;;;;;29.57;13.57;;;;;;;;;;4898101;29;20508;-83
2022/01/15 00:20:30;;;;;;;31.63;14.38;;;;;;;;;;4888932;29;20777;-83
2022/01/15 00:22:58;;;;;;;45.13;18.27;;;;;;;;;;4898702;29;20451;-82
2022/01/15 00:25:25;;;;;;;41.75;17.98;;;;;;;;;;4895746;29;20460;-82
2022/01/15 00:27:52;;;;;;;35.47;16.13;;;;;;;;;;4880196;29;20440;-82
2022/01/15 00:30:18;;;;;;;39.08;16.25;;;;;;;;;;4877077;29;20759;-82
2022/01/15 00:32:45;;;;;;;35.60;15.77;;;;;;;;;;4894600;29;20426;-82
2022/01/15 00:35:13;;;;;;;48.50;17.98;;;;;;;;;;4878097;29;20456;-82
2022/01/15 00:37:39;;;;;;;39.97;16.83;;;;;;;;;;4877047;29;21666;-83
2022/01/15 00:40:08;;;;;;;37.03;15.88;;;;;;;;;;4892709;29;20528;-81
2022/01/15 00:42:37;;;;;;;50.80;17.35;;;;;;;;;;4881586;29;20433;-81
2022/01/15 00:45:04;;;;;;;33.90;15.45;;;;;;;;;;4885819;29;20444;-82
2022/01/15 00:47:33;;;;;;;48.80;17.25;;;;;;;;;;4890145;29;20431;-83
2022/01/15 00:49:59;;;;;;;46.80;16.95;;;;;;;;;;4885240;29;20451;-83
2022/01/15 00:52:26;;;;;;;29.25;14.18;;;;;;;;;;4926770;23;20446;-81
2022/01/15 00:54:52;;;;;;;29.63;14.35;;;;;;;;;;4942183;28;20594;-80
2022/01/15 00:57:18;;;;;;;33.22;15.07;;;;;;;;;;4930235;29;20493;-79
2022/01/15 00:59:44;;;;;;;34.10;14.00;;;;;;;;;;4914012;29;20432;-78
2022/01/15 01:02:10;;;;;;;33.35;14.32;;;;;;;;;;4925401;29;20430;-78
2022/01/15 01:04:36;;;;;;;33.63;14.48;;;;;;;;;;4935410;28;20443;-79
2022/01/15 01:07:02;;;;;;;34.63;14.65;;;;;;;;;;4942993;28;20788;-79
2022/01/15 01:09:44;;;;;;;25.93;12.83;;;;;;;;;;4942696;29;20511;-78
2022/01/15 01:12:26;;;;;;;29.80;13.38;;;;;;;;;;4925969;29;20442;-78
2022/01/15 01:20:37;;;;;;;38.10;15.20;;;;;;;;;;4959871;28;20445;-78
2022/01/15 01:23:03;;;;;;;29.55;13.88;;;;;;;;;;4944414;29;20445;-80
2022/01/15 01:25:56;;;;;;;28.88;13.35;;;;;;;;;;4943829;29;20438;-79
2022/01/15 01:28:58;;;;;;;25.23;12.30;;;;;;;;;;4958051;28;20433;-79
2022/01/15 01:33:42;;;;;;;27.40;12.30;;;;;;;;;;4950903;28;20501;-79
2022/01/15 01:36:16;;;;;;;25.30;11.52;;;;;;;;;;4958559;28;20431;-79
2022/01/15 01:38:56;;;;;;;23.33;11.68;;;;;;;;;;4928379;29;20495;-79
2022/01/15 01:41:23;;;;;;;21.75;11.57;;;7.60;99.90;;;;;;4924892;28;20465;-80
2022/01/15 01:44:01;;;;;;;27.45;12.32;;;7.90;99.90;;;;;;4926049;29;20504;-79
2022/01/15 01:48:54;;;;;;;25.05;11.38;;;;;;;;;;4959445;28;20955;-79
2022/01/15 01:51:25;;;;;;;20.98;10.55;;;;;;;;;;4939706;29;20429;-79
2022/01/15 01:53:52;;;;;;;20.10;10.98;;;7.10;99.90;;;;;;4941826;28;21241;-79
2022/01/15 01:56:19;;;;;;;20.88;10.75;;;;;;;;;;4919522;29;20441;-78
2022/01/15 01:58:46;;;;;;;24.25;11.48;;;;;;;;;;4940938;28;20444;-79
2022/01/15 02:01:12;;;;;;;21.40;10.50;;;;;;;;;;4940626;29;20548;-79
2022/01/15 02:03:38;;;;;;;21.95;10.63;;;;;;;;;;4935528;28;20501;-79
2022/01/15 02:06:05;;;;;;;16.13;8.93;;;;;;;;;;4941338;29;20477;-79
2022/01/15 02:08:34;;;;;;;12.60;7.50;;;;;;;;;;4926639;29;20600;-78
2022/01/15 02:11:02;;;;;;;11.57;6.83;;;;;;;;;;4941706;28;20522;-79
2022/01/15 02:13:29;;;;;;;12.33;7.03;;;;;;;;;;4942345;29;20534;-79
2022/01/15 02:15:57;;;;;;;11.98;7.30;;;;;;;;;;4937804;28;20453;-79
2022/01/15 02:18:23;;;;;;;12.50;6.93;;;;;;;;;;4936788;29;20436;-79
2022/01/15 02:23:36;;;;;;;15.77;8.38;;;;;;;;;;4914224;29;20442;-79
2022/01/15 02:26:02;;;;;;;18.90;9.68;;;;;;;;;;4915644;29;20436;-78
2022/01/15 02:28:30;;;;;;;20.30;10.43;;;;;;;;;;4941674;29;20440;-80
2022/01/15 02:30:57;;;;;;;20.63;10.40;;;;;;;;;;4940101;28;20485;-80
2022/01/15 02:33:23;;;;;;;18.98;9.55;;;;;;;;;;4941289;29;20472;-79
2022/01/15 02:35:50;;;;;;;19.67;10.05;;;;;;;;;;4925945;29;20963;-79
2022/01/15 02:38:16;;;;;;;22.85;11.00;;;7.30;99.90;;;;;;4918345;28;20945;-79
2022/01/15 02:40:43;;;;;;;21.35;10.30;;;;;;;;;;4942880;29;20452;-80
2022/01/15 02:43:12;;;;;;;22.55;10.60;;;;;;;;;;4938172;29;20976;-79
2022/01/15 02:45:43;;;;;;;13.88;7.30;;;;;;;;;;4934757;29;20440;-81
2022/01/15 02:48:13;;;;;;;9.80;5.40;;;;;;;;;;4934272;28;20427;-80
2022/01/15 02:50:40;;;;;;;9.40;5.20;;;;;;;;;;4941641;29;20434;-80
2022/01/15 02:53:07;;;;;;;8.60;5.07;;;;;;;;;;4939643;28;20481;-80
2022/01/15 02:55:33;;;;;;;11.23;5.88;;;;;;;;;;4937411;29;20434;-81
2022/01/15 02:57:59;;;;;;;15.07;9.00;;;;;;;;;;4916760;29;20440;-81
2022/01/15 03:00:26;;;;;;;18.52;8.73;;;;;;;;;;4939122;28;20502;-80
2022/01/15 03:02:52;;;;;;;12.27;6.82;;;;;;;;;;4941304;29;20520;-81
2022/01/15 03:05:20;;;;;;;13.00;6.70;;;;;;;;;;4941293;28;20425;-80
2022/01/15 03:07:46;;;;;;;14.07;7.65;;;;;;;;;;4930995;29;20438;-81
2022/01/15 03:10:12;;;;;;;16.95;8.57;;;;;;;;;;4917450;29;20459;-80
2022/01/15 03:12:39;;;;;;;16.27;8.65;;;;;;;;;;4937548;29;20498;-81
2022/01/15 03:15:06;;;;;;;26.80;14.48;;;;;;;;;;4921261;29;20526;-80
2022/01/15 03:17:33;;;;;;;15.57;8.70;;;;;;;;;;4934087;28;20433;-80
2022/01/15 03:19:59;;;;;;;16.08;8.73;;;;;;;;;;4956816;28;20504;-81
2022/01/15 03:22:25;;;;;;;16.83;8.60;;;;;;;;;;4941570;29;20449;-80
2022/01/15 03:24:52;;;;;;;13.98;7.38;;;;;;;;;;4938614;28;20433;-81
2022/01/15 03:27:21;;;;;;;15.20;7.53;;;;;;;;;;4940613;28;20433;-80
2022/01/15 03:29:47;;;;;;;14.27;8.05;;;;;;;;;;4924760;29;20461;-80
2022/01/15 03:32:13;;;;;;;16.45;7.95;;;;;;;;;;4940580;29;20505;-80
2022/01/15 03:34:39;;;;;;;16.23;7.72;;;;;;;;;;4934672;29;20465;-80
2022/01/15 03:37:05;;;;;;;14.48;7.97;;;;;;;;;;4939939;28;20429;-80
2022/01/15 03:39:32;;;;;;;13.95;7.82;;;;;;;;;;4925621;29;20426;-80
2022/01/15 03:41:58;;;;;;;18.45;10.18;;;;;;;;;;4940042;28;20436;-80
2022/01/15 03:44:24;;;;;;;16.57;9.00;;;;;;;;;;4914809;29;20495;-80
2022/01/15 03:46:50;;;;;;;15.82;8.68;;;;;;;;;;4916025;28;20428;-80
2022/01/15 03:49:16;;;;;;;14.60;7.60;;;;;;;;;;4923669;29;20463;-80
2022/01/15 03:51:42;;;;;;;13.02;7.35;;;;;;;;;;4920807;29;20946;-80
2022/01/15 03:54:08;;;;;;;12.68;7.13;;;;;;;;;;4924866;29;20438;-80
2022/01/15 03:56:35;;;;;;;12.57;7.22;;;;;;;;;;4925033;28;20434;-80
2022/01/15 03:59:01;;;;;;;12.00;6.93;;;;;;;;;;4942043;29;20426;-80
2022/01/15 04:01:27;;;;;;;11.57;6.72;;;;;;;;;;4958719;28;20497;-81
2022/01/15 04:03:53;;;;;;;11.35;6.57;;;;;;;;;;4927913;28;20458;-80
2022/01/15 04:06:19;;;;;;;11.40;6.78;;;;;;;;;;4960365;28;20777;-81
2022/01/15 04:08:45;;;;;;;10.47;6.10;;;;;;;;;;4925983;29;20432;-80
2022/01/15 04:11:11;;;;;;;12.77;6.70;;;;;;;;;;4918992;28;20428;-81
2022/01/15 04:13:37;;;;;;;11.75;6.50;;;;;;;;;;4940557;29;20435;-80
2022/01/15 04:16:03;;;;;;;11.73;6.70;;;;;;;;;;4924276;28;20434;-81
2022/01/15 04:18:36;;;;;;;13.40;6.70;;;;;;;;;;4936940;29;20433;-80
2022/01/15 04:21:02;;;;;;;12.00;6.50;;;;;;;;;;4921767;29;20486;-80
2022/01/15 04:23:28;;;;;;;10.60;6.43;;;;;;;;;;4913119;29;20442;-81
2022/01/15 04:25:54;;;;;;;9.82;5.40;;;;;;;;;;4943155;29;20462;-80
2022/01/15 04:28:20;;;;;;;10.52;5.60;;;7.20;99.90;;;;;;4924598;28;20434;-80
2022/01/15 04:30:48;;;;;;;9.10;5.67;;;;;;;;;;4927990;29;20892;-81
2022/01/15 04:33:14;;;;;;;7.20;4.47;;;;;;;;;;4921004;28;20565;-80
2022/01/15 04:35:41;;;;;;;6.75;4.28;;;;;;;;;;4943728;29;20481;-80
2022/01/15 04:38:11;;;;;;;7.25;4.60;;;;;;;;;;4925826;29;20437;-80
2022/01/15 04:40:37;;;;;;;8.05;4.97;;;;;;;;;;4942652;29;20457;-80
2022/01/15 04:43:03;;;;;;;7.60;4.40;;;;;;;;;;4959217;28;20428;-80
2022/01/15 04:45:29;;;;;;;6.50;4.25;;;;;;;;;;4926446;28;20996;-80
2022/01/15 04:47:55;;;;;;;8.70;4.37;;;;;;;;;;4943037;29;20430;-81
2022/01/15 04:50:22;;;;;;;7.82;4.68;;;;;;;;;;4922999;29;20467;-78
2022/01/15 04:52:48;;;;;;;7.80;4.68;;;;;;;;;;4927640;28;20518;-80
2022/01/15 04:55:14;;;;;;;9.20;5.50;;;;;;;;;;4926848;29;20433;-80
2022/01/15 04:57:41;;;;;;;8.48;5.10;;;;;;;;;;4942203;28;20517;-80
2022/01/15 05:00:10;;;;;;;9.07;5.63;;;7.00;99.90;;;;;;4934879;29;20462;-80
2022/01/15 05:02:36;;;;;;;11.73;6.40;;;;;;;;;;4930525;29;20525;-80
2022/01/15 05:05:03;;;;;;;13.00;6.60;;;;;;;;;;4958450;28;20426;-80
2022/01/15 05:07:29;;;;;;;9.32;5.38;;;;;;;;;;4958018;28;20437;-80
2022/01/15 05:09:55;;;;;;;9.38;5.20;;;;;;;;;;4935883;29;20425;-80
2022/01/15 05:12:29;;;;;;;9.77;5.20;;;;;;;;;;4940266;28;20986;-81
2022/01/15 05:14:55;;;;;;;8.32;5.00;;;;;;;;;;4924278;29;20462;-80
2022/01/15 05:17:21;;;;;;;9.50;5.15;;;;;;;;;;4943974;29;20438;-80
2022/01/15 05:19:47;;;;;;;12.68;8.15;;;;;;;;;;4959073;28;20822;-80
2022/01/15 05:22:13;;;;;;;10.95;6.85;;;;;;;;;;4946026;28;20969;-81
2022/01/15 05:24:40;;;;;;;10.50;6.60;;;;;;;;;;4941456;28;20460;-80
2022/01/15 05:27:06;;;;;;;8.98;5.45;;;;;;;;;;4942051;28;20477;-80
2022/01/15 05:29:32;;;;;;;8.15;5.55;;;;;;;;;;4940999;29;20446;-80
2022/01/15 05:31:58;;;;;;;6.63;4.00;;;;;;;;;;4940949;28;20809;-80
2022/01/15 05:34:24;;;;;;;6.35;3.95;;;;;;;;;;4923491;29;20446;-81
2022/01/15 05:36:50;;;;;;;6.97;4.25;;;;;;;;;;4916283;28;20439;-81
2022/01/15 05:39:16;;;;;;;13.57;7.32;;;;;;;;;;4959409;29;20434;-81
2022/01/15 05:41:42;;;;;;;22.30;8.23;;;;;;;;;;4925568;28;20461;-81
2022/01/15 05:44:08;;;;;;;6.90;4.22;;;;;;;;;;4906821;29;20449;-80
2022/01/15 05:46:35;;;;;;;8.88;5.43;;;;;;;;;;4940203;29;20469;-80
2022/01/15 05:49:02;;;;;;;5.97;3.65;;;;;;;;;;4926808;28;20425;-81
2022/01/15 05:51:30;;;;;;;8.43;6.00;;;;;;;;;;4940341;28;20795;-80
2022/01/15 05:54:00;;;;;;;7.25;4.18;;;;;;;;;;4955714;28;20461;-81
2022/01/15 05:56:26;;;;;;;6.60;3.83;;;;;;;;;;4942116;29;20437;-80
2022/01/15 05:58:52;;;;;;;6.55;3.90;;;;;;;;;;4940945;28;20438;-81
2022/01/15 06:01:18;;;;;;;85.25;12.60;;;;;;;;;;4901137;28;20454;-81
2022/01/15 06:03:45;;;;;;;13.00;6.38;;;;;;;;;;4914529;29;20434;-81
2022/01/15 06:06:11;;;;;;;57.05;7.85;;;;;;;;;;4921108;28;20445;-81
2022/01/15 06:08:37;;;;;;;8.02;4.35;;;;;;;;;;4941175;29;20430;-81
2022/01/15 06:11:03;;;;;;;15.50;4.27;;;;;;;;;;4924761;29;20455;-82
2022/01/15 06:13:29;;;;;;;7.63;3.90;;;;;;;;;;4909274;29;20437;-81
2022/01/15 06:15:55;;;;;;;6.22;3.40;;;;;;;;;;4925554;29;20470;-81
2022/01/15 06:18:21;;;;;;;5.65;3.38;;;;;;;;;;4923566;28;21204;-81
2022/01/15 06:20:47;;;;;;;5.50;3.20;;;;;;;;;;4925820;29;20434;-81
2022/01/15 06:23:13;;;;;;;4.68;2.75;;;;;;;;;;4941395;29;20437;-81
2022/01/15 06:25:39;;;;;;;6.45;3.20;;;;;;;;;;4925891;29;20426;-81
2022/01/15 06:28:05;;;;;;;5.03;3.10;;;;;;;;;;4928787;28;20458;-81
2022/01/15 06:30:32;;;;;;;5.15;3.03;;;;;;;;;;4941824;29;20954;-81
2022/01/15 06:32:58;;;;;;;5.10;3.10;;;;;;;;;;4956019;28;20516;-81
2022/01/15 06:35:24;;;;;;;6.68;3.38;;;;;;;;;;4922998;28;20419;-80
2022/01/15 06:37:52;;;;;;;5.70;3.30;;;;;;;;;;4924960;29;20838;-81
2022/01/15 06:40:18;;;;;;;5.30;3.35;;;;;;;;;;4914234;28;20439;-81
2022/01/15 06:42:44;;;;;;;5.78;3.78;;;;;;;;;;4940956;29;20429;-81
2022/01/15 06:45:11;;;;;;;5.72;3.40;;;;;;;;;;4938587;28;20459;-81
2022/01/15 06:47:37;;;;;;;6.57;3.67;;;;;;;;;;4917363;28;20425;-80
2022/01/15 06:50:05;;;;;;;6.60;3.85;;;6.20;99.90;;;;;;4922311;29;20435;-81
2022/01/15 06:52:34;;;;;;;35.45;5.32;;;;;;;;;;4911568;28;20510;-80
2022/01/15 06:55:00;;;;;;;6.93;3.83;;;;;;;;;;4941327;29;20508;-80
2022/01/15 06:57:27;;;;;;;5.78;3.50;;;;;;;;;;4908461;28;20486;-80
2022/01/15 06:59:53;;;;;;;6.63;3.67;;;;;;;;;;4940394;29;20910;-80
2022/01/15 07:02:19;;;;;;;8.20;4.00;;;;;;;;;;4930852;28;20423;-80
2022/01/15 07:04:45;;;;;;;6.78;3.60;;;;;;;;;;4910013;29;20433;-80
2022/01/15 07:07:11;;;;;;;7.38;4.18;;;;;;;;;;4940051;29;20446;-81
2022/01/15 07:09:37;;;;;;;12.55;4.40;;;;;;;;;;4941739;28;20506;-80
2022/01/15 07:12:04;;;;;;;8.52;4.50;;;;;;;;;;4923688;29;20422;-81
2022/01/15 07:14:30;;;;;;;8.75;4.82;;;;;;;;;;4909263;28;20450;-81
2022/01/15 07:16:56;;;;;;;9.35;5.05;;;;;;;;;;4939220;28;20490;-80
2022/01/15 07:19:22;;;;;;;9.43;5.03;;;;;;;;;;4907253;28;21528;-80
2022/01/15 07:21:49;;;;;;;8.55;4.85;;;;;;;;;;4909675;29;20502;-80
2022/01/15 07:24:16;;;;;;;87.75;11.52;;;;;;;;;;4905097;29;20438;-81
2022/01/15 07:26:42;;;;;;;9.15;4.65;;;;;;;;;;4909310;29;20787;-80
2022/01/15 07:29:14;;;;;;;8.98;4.90;;;;;;;;;;4923944;29;20433;-80
2022/01/15 07:31:41;;;;;;;10.30;5.20;;;;;;;;;;4910437;29;20444;-79
2022/01/15 07:34:07;;;;;;;9.20;5.00;;;;;;;;;;4943648;29;20490;-80
2022/01/15 07:36:33;;;;;;;13.30;5.93;;;;;;;;;;4929880;29;20444;-80
2022/01/15 07:38:59;;;;;;;32.15;7.70;;;;;;;;;;4928527;28;21584;-80
2022/01/15 07:41:25;;;;;;;21.40;8.73;;;;;;;;;;4910895;29;20441;-80
2022/01/15 07:43:51;;;;;;;27.08;6.72;;;;;;;;;;4911743;28;20457;-80
2022/01/15 07:46:18;;;;;;;12.20;5.50;;;;;;;;;;4940778;29;20972;-79
2022/01/15 07:48:44;;;;;;;22.08;6.20;;;;;;;;;;4906816;28;20439;-79
2022/01/15 07:51:10;;;;;;;171.00;19.57;;;;;;;;;;4914987;29;20445;-80
2022/01/15 07:53:36;;;;;;;185.80;20.33;;;;;;;;;;4946629;28;20792;-81
2022/01/15 07:56:02;;;;;;;51.78;8.00;;;;;;;;;;4946555;28;20679;-81
2022/01/15 07:58:28;;;;;;;23.58;8.43;;;;;;;;;;4921095;29;20440;-81
2022/01/15 08:00:54;;;;;;;114.15;10.60;;;;;;;;;;4931698;28;20428;-81
2022/01/15 08:03:20;;;;;;;11.75;6.75;;;;;;;;;;4942151;28;20951;-81
2022/01/15 08:05:46;;;;;;;15.05;6.78;;;;;;;;;;4961722;28;20443;-81
2022/01/15 08:08:12;;;;;;;14.37;7.63;;;;;;;;;;4931153;28;21072;-81
2022/01/15 08:10:39;;;;;;;151.13;17.45;;;;;;;;;;4928366;29;20941;-81
2022/01/15 08:13:05;;;;;;;17.27;8.87;;;;;;;;;;4945385;28;20472;-79
2022/01/15 08:15:33;;;;;;;39.25;9.70;;;;;;;;;;4942930;28;20433;-79
2022/01/15 08:17:59;;;;;;;51.78;9.93;;;;;;;;;;4946064;28;20446;-79
2022/01/15 08:20:25;;;;;;;330.23;27.67;;;;;;;;;;4979511;28;20468;-79
2022/01/15 08:22:51;;;;;;;17.75;8.50;;;;;;;;;;4929014;29;20442;-80
2022/01/15 08:25:18;;;;;;;19.15;9.40;;;;;;;;;;4927432;28;21065;-79
2022/01/15 08:27:44;;;;;;;18.77;9.73;;;;;;;;;;4929071;29;20990;-79
2022/01/15 08:30:10;;;;;;;33.65;11.75;;;;;;;;;;4962064;28;20965;-79
2022/01/15 08:32:36;;;;;;;25.50;10.70;;;;;;;;;;4946712;28;20438;-77
2022/01/15 08:35:03;;;;;;;17.75;9.45;;;;;;;;;;4949215;28;20436;-76
2022/01/15 08:37:29;;;;;;;16.15;8.57;;;;;;;;;;4931208;28;20455;-79
2022/01/15 08:39:55;;;;;;;15.73;7.75;;;;;;;;;;4947465;28;20428;-80
2022/01/15 08:42:21;;;;;;;17.55;8.48;;;;;;;;;;4936710;28;20463;-80
2022/01/15 08:44:47;;;;;;;63.38;12.15;;;;;;;;;;4944947;28;20438;-80
2022/01/15 08:47:14;;;;;;;16.50;8.48;;;;;;;;;;4926312;28;20536;-80
2022/01/15 08:49:40;;;;;;;18.30;10.53;;;;;;;;;;4952096;28;20440;-79
2022/01/15 08:52:06;;;;;;;16.83;9.30;;;;;;;;;;4946220;28;20423;-79
2022/01/15 08:54:32;;;;;;;24.47;8.70;;;;;;;;;;4963839;28;20491;-80
2022/01/15 08:56:58;;;;;;;15.25;8.68;;;;;;;;;;4945533;28;20853;-79
2022/01/15 08:59:27;;;;;;;17.63;9.50;;;;;;;;;;4927619;28;20530;-80
2022/01/15 09:01:53;;;;;;;75.78;13.07;;;;;;;;;;4930341;28;20531;-80
2022/01/15 09:04:19;;;;;;;17.52;8.32;;;;;;;;;;4961165;28;20432;-81
2022/01/15 09:06:46;;;;;;;14.40;7.82;;;;;;;;;;4928416;29;20457;-81
2022/01/15 09:09:12;;;;;;;14.57;7.97;;;;;;;;;;4923204;28;20424;-80
2022/01/15 09:11:38;;;;;;;14.65;8.52;;;;;;;;;;4943062;28;20424;-81
2022/01/15 09:14:04;;;;;;;16.70;9.10;;;;;;;;;;4929580;28;20442;-80
2022/01/15 09:16:31;;;;;;;15.60;8.82;;;;;;;;;;4923633;28;20434;-80
2022/01/15 09:18:57;;;;;;;30.27;9.88;;;;;;;;;;4961321;28;20428;-80
2022/01/15 09:21:24;;;;;;;33.28;11.25;;;;;;;;;;4921132;28;20790;-80
2022/01/15 09:23:50;;;;;;;19.77;10.98;;;;;;;;;;4946588;28;20428;-80
2022/01/15 09:26:23;;;;;;;22.30;10.77;;;;;;;;;;4945412;28;20960;-80
2022/01/15 09:31:36;;;;;;;22.38;11.38;;;6.20;99.90;;;;;;4958364;28;20416;-80
2022/01/15 09:34:03;;;;;;;82.30;18.23;;;;;;;;;;4946173;28;20874;-80
2022/01/15 09:36:29;;;;;;;32.17;17.52;;;;;;;;;;4946828;28;20947;-81
2022/01/15 09:38:55;;;;;;;20.55;11.05;;;;;;;;;;4945431;28;20519;-81
2022/01/15 09:41:21;;;;;;;18.55;10.23;;;;;;;;;;4940905;28;20478;-81
2022/01/15 09:43:48;;;;;;;58.00;14.13;;;;;;;;;;4929709;28;20424;-81
2022/01/15 09:46:18;;;;;;;102.57;17.48;;;;;;;;;;4965635;28;20531;-79
2022/01/15 09:48:45;;;;;;;21.23;11.38;;;;;;;;;;4947244;28;20444;-79
2022/01/15 09:51:11;;;;;;;21.15;10.98;;;;;;;;;;4928644;28;20437;-79
2022/01/15 09:53:37;;;;;;;17.55;10.07;;;;;;;;;;4921565;29;20440;-80
2022/01/15 09:56:06;;;;;;;47.65;13.60;;;;;;;;;;4939256;29;20429;-79
2022/01/15 09:58:32;;;;;;;21.90;12.52;;;;;;;;;;4920947;28;20441;-80
2022/01/15 10:00:59;;;;;;;21.98;11.80;;;;;;;;;;4918801;29;20465;-80
2022/01/15 10:03:25;;;;;;;22.65;11.55;;;;;;;;;;4933066;28;20482;-81
2022/01/15 10:05:51;;;;;;;55.05;14.93;;;;;;;;;;4922945;29;20429;-81
2022/01/15 10:08:20;;;;;;;54.65;15.13;;;;;;;;;;4934732;29;20461;-81
2022/01/15 10:10:50;;;;;;;24.92;12.48;;;;;;;;;;4937250;29;20430;-82
2022/01/15 10:13:17;;;;;;;35.38;12.98;;;;;;;;;;4949541;28;20473;-79
2022/01/15 10:15:44;;;;;;;26.58;14.13;;;;;;;;;;4952610;28;20532;-81
2022/01/15 10:18:20;;;;;;;117.57;20.00;;;;;;;;;;4935834;28;20438;-80
2022/01/15 10:20:46;;;;;;;27.52;13.85;;;;;;;;;;4935332;29;20454;-81
2022/01/15 10:23:16;;;;;;;25.77;12.90;;;;;;;;;;4920536;29;20441;-81
2022/01/15 10:25:43;;;;;;;28.13;14.75;;;;;;;;;;4933823;28;20921;-80
2022/01/15 10:28:09;;;;;;;58.80;18.25;;;;;;;;;;4948471;28;20440;-81
2022/01/15 10:30:36;;;;;;;49.13;15.38;;;;;;;;;;4917716;28;20444;-79
2022/01/15 10:33:03;;;;;;;26.80;13.98;;;;;;;;;;4935522;29;20465;-79
2022/01/15 10:35:42;;;;;;;57.95;17.33;;;;;;;;;;4935481;29;20441;-80
2022/01/15 10:38:10;;;;;;;32.95;15.27;;;;;;;;;;4934213;29;20476;-79
2022/01/15 10:40:47;;;;;;;31.33;15.45;;;;;;;;;;4940605;29;20433;-80
2022/01/15 10:43:15;;;;;;;30.10;15.80;;;;;;;;;;4955817;28;20941;-80
2022/01/15 10:45:52;;;;;;;32.47;15.77;;;;;;;;;;4931628;29;20485;-81
2022/01/15 10:48:27;;;;;;;42.53;17.38;;;;;;;;;;4926755;29;20453;-81
2022/01/15 10:51:00;;;;;;;38.95;16.63;;;;;;;;;;4941459;29;20454;-81
2022/01/15 10:53:37;;;;;;;33.78;15.63;;;;;;;;;;4956710;28;20442;-80
2022/01/15 10:56:04;;;;;;;33.13;15.65;;;;;;;;;;4940617;28;20449;-80
2022/01/15 10:58:30;;;;;;;39.90;17.58;;;;;;;;;;4940116;29;20480;-80
2022/01/15 11:00:56;;;;;;;41.88;17.08;;;;;;;;;;4957333;28;20477;-81
2022/01/15 11:03:25;;;;;;;35.27;14.97;;;;;;;;;;4954534;28;20445;-80
2022/01/15 11:05:52;;;;;;;35.53;16.57;;;;;;;;;;4941860;28;20476;-80
2022/01/15 11:08:19;;;;;;;58.33;18.92;;;;;;;;;;4943271;28;20499;-82
2022/01/15 11:10:52;;;;;;;122.82;22.27;;;;;;;;;;4957699;28;20422;-81
2022/01/15 11:13:19;;;;;;;40.70;17.87;;;;;;;;;;4942655;29;20548;-80
2022/01/15 11:15:47;;;;;;;46.28;18.40;;;;;;;;;;4944558;29;20446;-80
2022/01/15 11:18:15;;;;;;;46.40;18.05;;;;;;;;;;4945555;29;20433;-80
2022/01/15 11:20:44;;;;;;;55.63;19.40;;;;;;;;;;4943528;28;20455;-80
2022/01/15 11:23:11;;;;;;;64.00;19.20;;;4.90;99.90;;;;;;4939258;29;20422;-80
2022/01/15 11:25:38;;;;;;;43.15;19.52;;;;;;;;;;4926761;29;20439;-81
2022/01/15 11:28:07;;;;;;;38.05;17.67;;;;;;;;;;4937489;29;20431;-80
2022/01/15 11:30:34;;;;;;;48.78;17.85;;;5.30;99.90;;;;;;4941613;28;20510;-81
2022/01/15 11:33:00;;;;;;;40.78;17.60;;;;;;;;;;4935026;29;20432;-80
2022/01/15 11:35:37;;;;;;;44.70;17.38;;;;;;;;;;4941679;29;20512;-79
2022/01/15 11:38:03;;;;;;;228.93;29.95;;;;;;;;;;4940170;29;20445;-80
2022/01/15 11:40:34;;;;;;;65.55;20.67;;;;;;;;;;4919881;29;20530;-78
2022/01/15 11:43:19;;;;;;;68.32;21.05;;;;;;;;;;4941522;29;20441;-78
2022/01/15 11:45:47;;;;;;;56.70;21.15;;;;;;;;;;4942713;28;20429;-78
2022/01/15 11:48:29;;;;;;;955.08;141.30;;;;;;;;;;4945179;29;20540;-78
2022/01/15 11:51:14;;;;;;;60.15;21.50;;;;;;;;;;4935926;29;20480;-79
2022/01/15 11:53:54;;;;;;;174.25;26.00;;;;;;;;;;4941955;28;20453;-80
2022/01/15 11:56:37;;;;;;;46.10;17.58;;;;;;;;;;4944176;29;20445;-80
2022/01/15 11:59:22;;;;;;;40.65;17.80;;;;;;;;;;4958292;28;20504;-80
2022/01/15 12:01:48;;;;;;;42.20;17.73;;;;;;;;;;4957236;28;20467;-82
2022/01/15 12:04:26;;;;;;;45.22;17.05;;;;;;;;;;4918059;29;20447;-80
2022/01/15 12:07:04;;;;;;;46.23;18.03;;;;;;;;;;4943212;28;20534;-82
2022/01/15 12:09:34;;;;;;;137.95;24.48;;;;;;;;;;4942900;29;20440;-82
2022/01/15 12:12:01;;;;;;;29.85;15.52;;;;;;;;;;4943106;28;20465;-80
2022/01/15 12:14:53;;;;;;;30.50;15.27;;;;;;;;;;4932901;29;20435;-80
2022/01/15 12:17:25;;;;;;;36.00;15.95;;;;;;;;;;4944841;29;20467;-80
2022/01/15 12:19:52;;;;;;;38.17;16.57;;;;;;;;;;4942882;29;20441;-81
2022/01/15 12:22:34;;;;;;;77.53;18.53;;;;;;;;;;4943641;29;20457;-81
2022/01/15 12:25:01;;;;;;;38.03;17.30;;;5.40;99.90;;;;;;4941077;28;20434;-81
2022/01/15 12:27:29;;;;;;;41.88;18.08;;;5.00;99.90;;;;;;4943093;29;20441;-81
2022/01/15 12:30:06;;;;;;;41.33;18.35;;;;;;;;;;4942753;29;20426;-80
2022/01/15 12:32:33;;;;;;;44.95;18.85;;;;;;;;;;4930071;29;20444;-81
2022/01/15 12:35:00;;;;;;;39.53;18.13;;;;;;;;;;4940489;28;20442;-80
2022/01/15 12:37:26;;;;;;;35.08;17.55;;;;;;;;;;4942827;29;20480;-81
2022/01/15 12:39:52;;;;;;;36.95;17.38;;;;;;;;;;4959027;28;20430;-81
2022/01/15 12:42:20;;;;;;;38.03;18.60;;;;;;;;;;4924619;28;20431;-80
2022/01/15 12:44:51;;;;;;;43.08;18.48;;;5.20;99.90;;;;;;4941734;29;20476;-80
2022/01/15 12:47:18;;;;;;;59.50;20.73;;;;;;;;;;4940448;29;20431;-79
2022/01/15 12:49:45;;;;;;;46.53;20.00;;;;;;;;;;4941244;29;20433;-80
2022/01/15 12:52:13;;;;;;;55.97;21.20;;;;;;;;;;4943391;28;21000;-80
2022/01/15 12:54:39;;;;;;;44.33;20.98;;;;;;;;;;4940868;29;20501;-80
2022/01/15 12:57:05;;;;;;;72.47;23.25;;;;;;;;;;4921718;29;20439;-80
2022/01/15 12:59:33;;;;;;;153.30;28.13;;;;;;;;;;4925668;28;20534;-81
2022/01/15 13:02:00;;;;;;;57.15;22.70;;;;;;;;;;4939797;28;20439;-80
2022/01/15 13:04:27;;;;;;;62.58;22.40;;;;;;;;;;4915669;28;20427;-81
2022/01/15 13:07:02;;;;;;;50.33;22.67;;;;;;;;;;4940924;29;20437;-81
2022/01/15 13:09:39;;;;;;;43.15;20.80;;;;;;;;;;4938186;29;20492;-80
2022/01/15 13:12:07;;;;;;;42.42;21.38;;;;;;;;;;4934890;29;20832;-81
2022/01/15 13:14:37;;;;;;;59.47;23.20;;;;;;;;;;4916645;28;22425;-80
2022/01/15 13:17:03;;;;;;;44.70;22.40;;;;;;;;;;4935552;29;20436;-81
2022/01/15 13:19:37;;;;;;;48.55;22.45;;;5.60;99.90;;;;;;4954158;28;20457;-81
2022/01/15 13:22:03;;;;;;;45.28;22.48;;;;;;;;;;4935490;29;20433;-82
2022/01/15 13:24:29;;;;;;;43.93;22.30;;;;;;;;;;4931879;29;20440;-82
2022/01/15 13:26:57;;;;;;;51.55;23.27;;;;;;;;;;4939676;29;20432;-82
2022/01/15 13:29:36;;;;;;;48.90;22.35;;;;;;;;;;4936761;29;20506;-82
2022/01/15 13:32:02;;;;;;;48.40;23.85;;;;;;;;;;4928631;29;20440;-81
2022/01/15 13:34:32;;;;;;;59.60;25.13;;;;;;;;;;4924072;29;20432;-80
2022/01/15 13:37:09;;;;;;;47.42;22.58;;;;;;;;;;4940834;29;20430;-80
2022/01/15 13:39:35;;;;;;;48.57;22.77;;;;;;;;;;4958279;28;20429;-80
2022/01/15 13:42:02;;;;;;;58.57;23.50;;;;;;;;;;4940031;29;20449;-82
2022/01/15 13:44:32;;;;;;;51.97;23.33;;;;;;;;;;4922644;29;20448;-81
2022/01/15 13:47:06;;;;;;;48.30;22.90;;;;;;;;;;4954039;28;20449;-81
2022/01/15 13:53:04;;;;;;;53.35;23.65;;;;;;;;;;4940033;29;20448;-81
2022/01/15 13:55:23;;;;;;;46.33;22.52;;;;;;;;;;4956170;28;20521;-80
2022/01/15 13:57:50;;;;;;;54.78;24.88;;;;;;;;;;4939685;28;20483;-80
2022/01/15 14:00:17;;;;;;;50.72;23.95;;;;;;;;;;4938072;29;20485;-80
2022/01/15 14:02:50;;;;;;;55.88;24.10;;;;;;;;;;4932367;28;20497;-82
2022/01/15 14:05:22;;;;;;;183.77;32.90;;;5.00;99.90;;;;;;4938820;28;20430;-80
2022/01/15 14:07:49;;;;;;;78.22;26.58;;;;;;;;;;4923743;29;20443;-81
2022/01/15 14:10:18;;;;;;;78.13;29.02;;;;;;;;;;4923624;28;20439;-80
2022/01/15 14:12:45;;;;;;;159.43;32.60;;;;;;;;;;4939001;29;20430;-80
2022/01/15 14:15:17;;;;;;;55.03;25.73;;;;;;;;;;4941474;28;20445;-80
2022/01/15 14:17:45;;;;;;;192.88;34.60;;;;;;;;;;4919577;29;20446;-81
2022/01/15 14:22:49;;;;;;;130.13;31.17;;;4.80;99.90;;;;;;4957967;28;20457;-81
2022/01/15 14:25:18;;;;;;;70.07;28.00;;;;;;;;;;4934518;28;20830;-80
2022/01/15 14:27:46;;;;;;;60.05;26.60;;;;;;;;;;4941162;29;20977;-81
2022/01/15 14:30:13;;;;;;;70.32;26.00;;;;;;;;;;4939761;28;20461;-79
2022/01/15 14:32:39;;;;;;;168.40;33.38;;;;;;;;;;4924249;29;20468;-80
2022/01/15 14:35:05;;;;;;;101.07;29.48;;;;;;;;;;4942179;29;20469;-80
2022/01/15 14:37:31;;;;;;;72.53;28.88;;;;;;;;;;4939883;28;20445;-81
2022/01/15 14:39:59;;;;;;;78.13;30.17;;;;;;;;;;4925412;29;20434;-81
2022/01/15 14:42:26;;;;;;;85.65;30.35;;;;;;;;;;4922259;28;20522;-81
2022/01/15 14:44:52;;;;;;;110.53;32.33;;;;;;;;;;4940953;29;20422;-81